Terminal Aerodrome Forecast
Issued by NWS Rapid City, SD

Home | Current Version | Previous Version | Text Only | Print | Product List | Glossary On
Versions: 1 2 3 4 5 6 7 8 9 10 11
000
FTUS43 KUNR 241700
TAFRAP
TAF
KRAP 241720Z 2418/2518 35015KT P6SM SCT250
     FM250100 02006KT P6SM SCT250
     FM251200 08004KT P6SM SKC
     FM251600 13006KT P6SM SKC=

USA.gov is the U.S. government's official web portal to all federal, state and local government web resources and services.